Terminal Aerodrome Forecast
Issued by NWS San Angelo, TX

Home | Current Version | Previous Version | Text Only | Print | Product List | Glossary On
Versions: 1 2 3 4 5 6 7 8 9 10 11 12 13 14 15 16 17 18
000
FTUS44 KSJT 181700
TAFSJT
TAF
KSJT 181739Z 1818/1918 25006KT P6SM SCT250
     FM190200 06006KT P6SM BKN015
     FM190600 03005KT 5SM BR OVC008
     FM191000 03004KT 3SM BR VCSH OVC007=

USA.gov is the U.S. government's official web portal to all federal, state and local government web resources and services.